Time;durP1;ratioP1;P1;durP2;ratioP2;P2;SDS_P1;SDS_P2;PMS_P1;PMS_P2;Temp;Humidity;BMP_temperature;BMP_pressure;BME280_temperature;BME280_humidity;BME280_pressure;Samples;Min_cycle;Max_cycle;Signal;HPM_P1;HPM_P2
2023/12/21 00:00:58;;;;;;;;;;;;;;;13.05;75.70;100675.22;7366307;19;20002;-67
2023/12/21 00:03:24;;;;;;;;;;;;;;;13.05;75.85;100675.22;7356816;19;19921;-68
2023/12/21 00:05:49;;;;;;;;;;;;;;;13.05;75.60;100697.03;7361832;19;19915;-67
2023/12/21 00:08:14;;;;;;;;;;;;;;;13.06;75.46;100692.63;7359373;19;19930;-68
2023/12/21 00:10:39;;;;;;;;;;;;;;;13.06;75.62;100685.63;7365121;19;20641;-68
2023/12/21 00:13:05;;;;;;;;;;;;;;;13.08;75.82;100675.97;7363513;19;19998;-67
2023/12/21 00:15:30;;;;;;;;;;;;;;;13.08;75.63;100670.72;7348703;19;19920;-68
2023/12/21 00:17:55;;;;;;;;;;;;;;;13.09;75.87;100672.44;7361860;19;19919;-67
2023/12/21 00:20:20;;;;;;;;;;;;;;;13.10;75.62;100665.41;7358719;19;19947;-68
2023/12/21 00:22:46;;;;;;;;;;;;;;;13.09;75.59;100672.44;7363781;19;19922;-67
2023/12/21 00:25:11;;;;;;;;;;;;;;;13.09;75.48;100664.56;7362478;19;20343;-68
2023/12/21 00:27:37;;;;;;;;;;;;;;;13.09;75.59;100646.22;7365797;19;19986;-68
2023/12/21 00:30:02;;;;;;;;;;;;;;;13.09;75.58;100651.47;7373405;19;20354;-68
2023/12/21 00:32:27;;;;;;;;;;;;;;;13.09;76.04;100656.69;7362185;19;19919;-68
2023/12/21 00:34:53;;;;;;;;;;;;;;;13.10;76.02;100641.81;7361581;19;19919;-67
2023/12/21 00:37:20;;;;;;;;;;;;;;;13.10;75.59;100637.44;7361145;19;19933;-67
2023/12/21 00:39:45;;;;;;;;;;;;;;;13.11;75.94;100636.53;7362268;19;20017;-68
2023/12/21 00:42:10;;;;;;;;;;;;;;;13.12;75.81;100640.00;7361677;19;19978;-68
2023/12/21 00:44:35;;;;;;;;;;;;;;;13.12;76.27;100622.50;7362042;19;20268;-68
2023/12/21 00:47:02;;;;;;;;;;;;;;;13.13;75.83;100603.25;7361931;19;19930;-68
2023/12/21 00:49:27;;;;;;;;;;;;;;;13.14;76.13;100610.22;7362183;19;19923;-68
2023/12/21 00:51:53;;;;;;;;;;;;;;;13.15;76.11;100598.81;7361115;19;19929;-67
2023/12/21 00:54:18;;;;;;;;;;;;;;;13.17;76.34;100607.47;7360314;19;19927;-68
2023/12/21 00:56:43;;;;;;;;;;;;;;;13.19;75.98;100599.56;7357745;19;20336;-69
2023/12/21 00:59:08;;;;;;;;;;;;;;;13.20;76.27;100593.41;7355963;19;19933;-68
2023/12/21 01:01:34;;;;;;;;;;;;;;;13.21;75.87;100596.00;7366297;19;19923;-67
2023/12/21 01:03:59;;;;;;;;;;;;;;;13.24;76.34;100592.41;7368134;19;20312;-68
2023/12/21 01:06:24;;;;;;;;;;;;;;;13.26;76.29;100590.59;7361260;19;19922;-67
2023/12/21 01:08:49;;;;;;;;;;;;;;;13.27;76.23;100573.94;7369545;19;20333;-68
2023/12/21 01:11:15;;;;;;;;;;;;;;;13.27;76.04;100565.22;7367121;19;19918;-67
2023/12/21 01:13:40;;;;;;;;;;;;;;;13.28;75.68;100566.91;7369974;19;19915;-68
2023/12/21 01:16:05;;;;;;;;;;;;;;;13.28;75.88;100566.91;7370587;19;20353;-67
2023/12/21 01:18:30;;;;;;;;;;;;;;;13.28;75.64;100566.91;7366014;19;19919;-67
2023/12/21 01:20:56;;;;;;;;;;;;;;;13.28;76.18;100566.91;7368355;19;20739;-67
2023/12/21 01:23:21;;;;;;;;;;;;;;;13.12;76.15;100530.72;7367982;19;19931;-68
2023/12/21 01:25:46;;;;;;;;;;;;;;;13.27;76.13;100539.84;7367712;19;19922;-67
2023/12/21 01:28:12;;;;;;;;;;;;;;;13.26;75.99;100539.91;7370842;19;19918;-68
2023/12/21 01:30:37;;;;;;;;;;;;;;;13.26;75.63;100543.38;7369397;19;20305;-67
2023/12/21 01:33:02;;;;;;;;;;;;;;;13.26;75.75;100537.28;7375221;19;19987;-67
2023/12/21 01:35:28;;;;;;;;;;;;;;;13.26;75.67;100525.03;7361811;19;19923;-67
2023/12/21 01:37:53;;;;;;;;;;;;;;;13.27;76.22;100539.00;7367886;19;19925;-67
2023/12/21 01:40:18;;;;;;;;;;;;;;;13.26;75.74;100521.56;7363852;19;19926;-68
2023/12/21 01:42:43;;;;;;;;;;;;;;;13.25;75.84;100520.72;7365950;19;19915;-67
2023/12/21 01:45:09;;;;;;;;;;;;;;;13.26;76.11;100538.13;7367718;19;20340;-68
2023/12/21 01:47:35;;;;;;;;;;;;;;;13.25;75.82;100523.31;7368816;19;19940;-68
2023/12/21 01:50:00;;;;;;;;;;;;;;;13.25;76.20;100515.47;7367949;19;20375;-67
2023/12/21 01:52:26;;;;;;;;;;;;;;;13.24;76.14;100487.53;7365967;19;20347;-68
2023/12/21 01:54:52;;;;;;;;;;;;;;;13.23;75.90;100507.66;7362478;19;19926;-68
2023/12/21 01:57:17;;;;;;;;;;;;;;;13.22;75.95;100503.31;7375134;19;20007;-68
2023/12/21 01:59:43;;;;;;;;;;;;;;;13.21;76.35;100482.34;7367141;19;20409;-67
2023/12/21 02:02:08;;;;;;;;;;;;;;;13.21;76.02;100498.97;7366020;19;20557;-68
2023/12/21 02:04:33;;;;;;;;;;;;;;;13.18;76.21;100492.97;7364644;19;19923;-67
2023/12/21 02:06:59;;;;;;;;;;;;;;;13.17;76.42;100481.59;7358938;19;19947;-69
2023/12/21 02:09:24;;;;;;;;;;;;;;;13.16;76.19;100485.16;7365644;19;19923;-68
2023/12/21 02:11:49;;;;;;;;;;;;;;;13.06;76.24;100457.56;7367300;19;19911;-67
2023/12/21 02:14:15;;;;;;;;;;;;;;;13.14;76.65;100476.50;7363359;19;19919;-68
2023/12/21 02:16:40;;;;;;;;;;;;;;;13.14;76.51;100463.38;7364126;19;19926;-67
2023/12/21 02:19:06;;;;;;;;;;;;;;;13.14;76.36;100475.66;7372005;19;20384;-67
2023/12/21 02:21:33;;;;;;;;;;;;;;;13.14;76.51;100452.91;7370308;19;19930;-67
2023/12/21 02:24:00;;;;;;;;;;;;;;;13.14;76.44;100471.25;7363750;19;19922;-67
2023/12/21 02:26:25;;;;;;;;;;;;;;;13.14;76.45;100459.91;7367629;19;20675;-67
2023/12/21 02:28:50;;;;;;;;;;;;;;;13.13;76.65;100482.66;7366611;19;19923;-68
2023/12/21 02:31:16;;;;;;;;;;;;;;;13.13;76.54;100474.78;7367760;19;19918;-67
2023/12/21 02:33:41;;;;;;;;;;;;;;;13.14;76.61;100476.50;7360329;19;19981;-67
2023/12/21 02:36:07;;;;;;;;;;;;;;;13.13;76.79;100469.56;7363301;19;19925;-67
2023/12/21 02:38:32;;;;;;;;;;;;;;;13.12;77.00;100475.69;7366939;19;19947;-68
2023/12/21 02:40:59;;;;;;;;;;;;;;;13.12;76.72;100467.81;7361473;19;19922;-67
2023/12/21 02:43:24;;;;;;;;;;;;;;;13.12;77.05;100457.31;7367770;19;19930;-67
2023/12/21 02:45:49;;;;;;;;;;;;;;;13.12;76.62;100464.34;7363765;19;20574;-67
2023/12/21 02:48:14;;;;;;;;;;;;;;;13.12;76.72;100445.97;7367163;19;19918;-67
2023/12/21 02:50:40;;;;;;;;;;;;;;;13.12;77.01;100454.69;7363068;19;20241;-67
2023/12/21 02:53:05;;;;;;;;;;;;;;;13.11;77.17;100466.09;7365950;19;19919;-67
2023/12/21 02:55:31;;;;;;;;;;;;;;;13.11;76.75;100445.13;7361630;19;19919;-68
2023/12/21 02:57:56;;;;;;;;;;;;;;;13.11;76.87;100454.78;7366618;19;19926;-68
2023/12/21 03:00:21;;;;;;;;;;;;;;;13.11;76.92;100450.38;7362403;19;19923;-68
2023/12/21 03:02:47;;;;;;;;;;;;;;;13.11;76.97;100441.66;7369676;19;19922;-67
2023/12/21 03:05:12;;;;;;;;;;;;;;;13.10;77.05;100453.91;7371502;19;19927;-68
2023/12/21 03:07:37;;;;;;;;;;;;;;;13.10;77.20;100437.34;7371130;19;19917;-68
2023/12/21 03:10:02;;;;;;;;;;;;;;;13.09;77.20;100420.75;7371685;19;19919;-67
2023/12/21 03:12:28;;;;;;;;;;;;;;;13.09;77.06;100436.50;7367927;19;20247;-67
2023/12/21 03:14:53;;;;;;;;;;;;;;;13.07;77.13;100411.22;7354967;19;19940;-68
2023/12/21 03:17:18;;;;;;;;;;;;;;;13.07;76.91;100426.94;7359392;19;20002;-68
2023/12/21 03:19:44;;;;;;;;;;;;;;;13.05;77.05;100406.03;7361048;19;19922;-67
2023/12/21 03:22:09;;;;;;;;;;;;;;;13.06;77.50;100388.56;7360660;19;19922;-67
2023/12/21 03:24:34;;;;;;;;;;;;;;;13.05;77.14;100379.84;7360193;19;20708;-68
2023/12/21 03:26:59;;;;;;;;;;;;;;;13.04;77.07;100380.75;7364432;19;19923;-67
2023/12/21 03:29:24;;;;;;;;;;;;;;;13.03;77.25;100373.81;7365786;19;19929;-68
2023/12/21 03:31:52;;;;;;;;;;;;;;;13.03;77.55;100352.84;7360975;19;19923;-67
2023/12/21 03:34:17;;;;;;;;;;;;;;;13.03;77.46;100344.97;7363290;19;19918;-68
2023/12/21 03:36:43;;;;;;;;;;;;;;;13.02;77.44;100353.72;7353669;19;20677;-68
2023/12/21 03:39:08;;;;;;;;;;;;;;;13.02;77.37;100335.38;7360467;19;19922;-66
2023/12/21 03:41:33;;;;;;;;;;;;;;;13.01;77.53;100338.91;7367496;19;19939;-68
2023/12/21 03:43:58;;;;;;;;;;;;;;;13.02;77.49;100332.75;7362417;19;20687;-67
2023/12/21 03:46:24;;;;;;;;;;;;;;;13.00;77.34;100321.50;7363493;19;19910;-67
2023/12/21 03:48:50;;;;;;;;;;;;;;;13.01;77.41;100338.91;7362561;19;20359;-67
2023/12/21 03:51:15;;;;;;;;;;;;;;;13.00;77.62;100342.47;7361339;19;19919;-68
2023/12/21 03:53:40;;;;;;;;;;;;;;;13.00;77.70;100347.69;7357868;19;19935;-68
2023/12/21 03:56:07;;;;;;;;;;;;;;;12.99;77.30;100362.56;7358054;19;19923;-67
2023/12/21 03:58:32;;;;;;;;;;;;;;;12.98;77.58;100360.03;7366846;19;20430;-68
2023/12/21 04:00:57;;;;;;;;;;;;;;;12.99;77.68;100339.00;7358734;19;19921;-67
2023/12/21 04:03:23;;;;;;;;;;;;;;;12.98;77.39;100347.78;7371076;19;19915;-68
2023/12/21 04:05:48;;;;;;;;;;;;;;;12.99;77.74;100335.50;7360339;19;19936;-67
2023/12/21 04:08:15;;;;;;;;;;;;;;;12.99;77.76;100349.47;7360223;19;19939;-68
2023/12/21 04:10:40;;;;;;;;;;;;;;;12.99;77.63;100332.91;7362598;19;19943;-67
2023/12/21 04:13:05;;;;;;;;;;;;;;;12.98;77.78;100336.44;7362017;19;19919;-68
2023/12/21 04:15:30;;;;;;;;;;;;;;;12.97;77.50;100342.56;7354146;19;20635;-67
2023/12/21 04:17:56;;;;;;;;;;;;;;;12.97;77.66;100358.28;7330023;19;19944;-67
2023/12/21 04:20:21;;;;;;;;;;;;;;;12.96;77.73;100356.59;7364176;19;19927;-67
2023/12/21 04:22:46;;;;;;;;;;;;;;;12.97;77.83;100358.28;7363270;19;19911;-67
2023/12/21 04:25:11;;;;;;;;;;;;;;;12.96;77.66;100372.31;7363983;19;19927;-67
2023/12/21 04:27:37;;;;;;;;;;;;;;;12.96;77.37;100351.34;7361857;19;19922;-67
2023/12/21 04:30:02;;;;;;;;;;;;;;;12.96;77.86;100340.88;7360819;19;19926;-67
2023/12/21 04:32:28;;;;;;;;;;;;;;;12.96;77.83;100377.56;7363463;19;20083;-67
2023/12/21 04:34:53;;;;;;;;;;;;;;;12.96;77.47;100367.06;7362882;19;19918;-67
2023/12/21 04:37:18;;;;;;;;;;;;;;;12.94;77.51;100380.25;7371331;19;19936;-67
2023/12/21 04:39:43;;;;;;;;;;;;;;;12.95;77.55;100383.72;7372659;19;19948;-67
2023/12/21 04:42:09;;;;;;;;;;;;;;;12.95;77.42;100375.84;7369311;19;19919;-67
2023/12/21 04:44:34;;;;;;;;;;;;;;;12.94;77.61;100379.38;7368586;19;19930;-68
2023/12/21 04:46:59;;;;;;;;;;;;;;;12.93;77.82;100364.59;7370136;19;19923;-68
2023/12/21 04:49:26;;;;;;;;;;;;;;;12.94;77.38;100368.91;7373334;19;19919;-68
2023/12/21 04:51:52;;;;;;;;;;;;;;;12.91;77.68;100355.91;7367208;19;19931;-67
2023/12/21 04:54:17;;;;;;;;;;;;;;;12.91;77.42;100374.25;7369016;19;20746;-67
2023/12/21 04:56:42;;;;;;;;;;;;;;;12.89;77.80;100382.19;7367185;19;19918;-67
2023/12/21 04:59:08;;;;;;;;;;;;;;;12.90;77.89;100380.41;7369505;19;19918;-68
2023/12/21 05:01:33;;;;;;;;;;;;;;;12.90;77.86;100380.41;7367386;19;20757;-68
2023/12/21 05:03:59;;;;;;;;;;;;;;;12.89;77.79;100355.97;7371005;19;19936;-67
2023/12/21 05:06:24;;;;;;;;;;;;;;;12.90;77.89;100383.03;7361272;19;19929;-67
2023/12/21 05:08:50;;;;;;;;;;;;;;;12.90;77.55;100390.91;7367908;19;20003;-67
2023/12/21 05:11:15;;;;;;;;;;;;;;;12.89;77.51;100397.91;7370443;19;20328;-68
2023/12/21 05:13:40;;;;;;;;;;;;;;;12.92;77.67;100410.03;7366412;19;19915;-68
2023/12/21 05:16:05;;;;;;;;;;;;;;;12.92;77.63;100378.56;7365964;19;20428;-68
2023/12/21 05:18:31;;;;;;;;;;;;;;;12.93;78.02;100398.66;7373381;19;19918;-68
2023/12/21 05:20:56;;;;;;;;;;;;;;;12.94;77.69;100384.63;7368193;19;20353;-68
2023/12/21 05:23:21;;;;;;;;;;;;;;;12.94;78.11;100376.78;7368377;19;19923;-67
2023/12/21 05:25:46;;;;;;;;;;;;;;;12.96;77.84;100377.56;7373899;19;19933;-67
2023/12/21 05:28:13;;;;;;;;;;;;;;;12.97;78.10;100363.53;7368951;19;19945;-68
2023/12/21 05:30:38;;;;;;;;;;;;;;;12.98;77.81;100381.00;7368643;19;20327;-68
2023/12/21 05:33:04;;;;;;;;;;;;;;;12.99;78.01;100382.69;7369780;19;19915;-67
2023/12/21 05:35:29;;;;;;;;;;;;;;;13.00;78.13;100355.56;7363063;19;19960;-68
2023/12/21 05:37:54;;;;;;;;;;;;;;;13.02;77.91;100335.38;7362875;19;19924;-66
2023/12/21 05:40:22;;;;;;;;;;;;;;;13.02;77.70;100363.34;7366579;19;19935;-68
2023/12/21 05:42:47;;;;;;;;;;;;;;;13.04;77.91;100375.50;7368343;19;19915;-67
2023/12/21 05:45:12;;;;;;;;;;;;;;;13.05;78.02;100360.63;7364558;19;19925;-67
2023/12/21 05:47:38;;;;;;;;;;;;;;;13.05;77.97;100371.97;7363530;19;19961;-67
2023/12/21 05:50:03;;;;;;;;;;;;;;;13.05;77.67;100356.25;7366548;19;19932;-68
2023/12/21 05:52:28;;;;;;;;;;;;;;;13.07;77.74;100353.56;7361148;19;19914;-68
2023/12/21 05:54:54;;;;;;;;;;;;;;;13.09;77.71;100349.13;7365411;19;20300;-67
2023/12/21 05:57:19;;;;;;;;;;;;;;;13.10;77.83;100341.19;7359079;19;19914;-68
2023/12/21 05:59:44;;;;;;;;;;;;;;;13.10;77.72;100354.31;7371106;19;20736;-67
2023/12/21 06:02:10;;;;;;;;;;;;;;;13.12;78.00;100347.22;7367132;19;19914;-67
2023/12/21 06:04:35;;;;;;;;;;;;;;;13.11;77.54;100324.53;7369014;19;19927;-67
2023/12/21 06:07:00;;;;;;;;;;;;;;;13.13;77.60;100321.88;7352228;19;19928;-67
2023/12/21 06:09:26;;;;;;;;;;;;;;;13.15;77.75;100328.75;7365526;19;19933;-67
2023/12/21 06:11:51;;;;;;;;;;;;;;;13.15;77.75;100330.53;7364524;19;19972;-67
2023/12/21 06:14:16;;;;;;;;;;;;;;;13.16;77.45;100333.09;7361444;19;20386;-67
2023/12/21 06:16:41;;;;;;;;;;;;;;;13.17;77.84;100324.28;7368266;19;19923;-67
2023/12/21 06:19:09;;;;;;;;;;;;;;;13.18;77.75;100315.53;7369905;19;19936;-67
2023/12/21 06:21:38;;;;;;;;;;;;;;;13.18;77.79;100314.69;7374399;19;20330;-68
2023/12/21 06:24:04;;;;;;;;;;;;;;;13.20;77.51;100313.69;7367950;19;19939;-68
2023/12/21 06:26:29;;;;;;;;;;;;;;;13.20;77.42;100329.44;7367672;19;19918;-68
2023/12/21 06:28:54;;;;;;;;;;;;;;;13.21;77.33;100320.69;7367924;19;19919;-67
2023/12/21 06:31:20;;;;;;;;;;;;;;;13.22;77.38;100306.66;7366406;19;19919;-68
2023/12/21 06:33:45;;;;;;;;;;;;;;;13.22;77.39;100285.66;7365109;19;19965;-67
2023/12/21 06:36:10;;;;;;;;;;;;;;;13.23;77.17;100290.03;7364268;19;19940;-67
2023/12/21 06:38:35;;;;;;;;;;;;;;;13.24;77.05;100312.69;7353802;19;20356;-68
2023/12/21 06:41:01;;;;;;;;;;;;;;;13.24;77.44;100315.31;7374258;19;19919;-67
2023/12/21 06:43:26;;;;;;;;;;;;;;;13.27;77.20;100321.34;7366840;19;20689;-67
2023/12/21 06:45:51;;;;;;;;;;;;;;;13.26;77.34;100338.00;7362994;19;19931;-68
2023/12/21 06:48:17;;;;;;;;;;;;;;;13.27;77.21;100316.09;7363976;19;19915;-67
2023/12/21 06:50:42;;;;;;;;;;;;;;;13.27;77.04;100289.88;7363929;19;19915;-67
2023/12/21 06:53:11;;;;;;;;;;;;;;;13.27;76.86;100308.22;7368961;19;20365;-67
2023/12/21 06:55:37;;;;;;;;;;;;;;;13.28;76.77;100299.44;7354184;19;19919;-68
2023/12/21 06:58:02;;;;;;;;;;;;;;;13.27;77.11;100289.88;7359706;19;19929;-67
2023/12/21 07:00:27;;;;;;;;;;;;;;;13.27;77.03;100277.63;7372469;19;19929;-68
2023/12/21 07:02:52;;;;;;;;;;;;;;;13.28;76.95;100294.19;7367390;19;19930;-67
2023/12/21 07:05:18;;;;;;;;;;;;;;;13.27;77.04;100292.50;7364195;19;19919;-67
2023/12/21 07:07:43;;;;;;;;;;;;;;;13.26;76.83;100286.41;7365051;19;19962;-67
2023/12/21 07:10:08;;;;;;;;;;;;;;;13.28;76.94;100291.59;7363572;19;19907;-67
2023/12/21 07:12:34;;;;;;;;;;;;;;;13.28;76.46;100270.59;7361949;19;19919;-67
2023/12/21 07:14:59;;;;;;;;;;;;;;;13.27;76.31;100288.09;7361362;19;19918;-67
2023/12/21 07:17:24;;;;;;;;;;;;;;;13.26;76.30;100296.91;7363820;19;19919;-67
2023/12/21 07:19:49;;;;;;;;;;;;;;;13.25;76.33;100271.59;7361061;19;20697;-68
2023/12/21 07:22:15;;;;;;;;;;;;;;;13.24;76.23;100262.88;7363753;19;20263;-67
2023/12/21 07:24:40;;;;;;;;;;;;;;;13.23;76.35;100289.19;7362711;19;19918;-67
2023/12/21 07:27:05;;;;;;;;;;;;;;;13.22;76.09;100301.41;7363337;19;19915;-67
2023/12/21 07:29:31;;;;;;;;;;;;;;;13.23;76.31;100266.44;7362307;19;19933;-67
2023/12/21 07:31:56;;;;;;;;;;;;;;;13.23;76.24;100262.94;7365402;19;19922;-68
2023/12/21 07:34:21;;;;;;;;;;;;;;;13.23;76.40;100266.44;7361020;19;20360;-67
2023/12/21 07:36:46;;;;;;;;;;;;;;;13.23;76.51;100255.94;7364765;19;20018;-67
2023/12/21 07:39:12;;;;;;;;;;;;;;;13.24;76.07;100278.63;7360438;19;19915;-67
2023/12/21 07:41:37;;;;;;;;;;;;;;;13.26;76.41;100286.41;7363882;19;19919;-67
2023/12/21 07:44:02;;;;;;;;;;;;;;;13.27;75.93;100268.91;7355832;19;19925;-68
2023/12/21 07:46:27;;;;;;;;;;;;;;;13.28;75.93;100274.09;7364738;19;20196;-67
2023/12/21 07:48:53;;;;;;;;;;;;;;;13.28;75.68;100300.31;7357444;19;19933;-68
2023/12/21 07:51:18;;;;;;;;;;;;;;;13.29;75.59;100306.44;7365475;19;19982;-68
2023/12/21 07:53:43;;;;;;;;;;;;;;;13.28;75.86;100273.22;7355740;19;19923;-68
2023/12/21 07:56:09;;;;;;;;;;;;;;;13.28;75.53;100297.72;7365207;19;19919;-67
2023/12/21 07:58:34;;;;;;;;;;;;;;;13.27;75.50;100303.00;7355915;19;20344;-67
2023/12/21 08:00:59;;;;;;;;;;;;;;;13.27;75.78;100297.75;7369399;19;20016;-68
2023/12/21 08:03:25;;;;;;;;;;;;;;;13.26;75.23;100289.03;7368798;19;20368;-68
2023/12/21 08:05:50;;;;;;;;;;;;;;;13.27;75.62;100303.00;7360895;19;19926;-68
2023/12/21 08:08:15;;;;;;;;;;;;;;;13.27;75.02;100282.88;7365724;19;19959;-67
2023/12/21 08:10:40;;;;;;;;;;;;;;;13.26;75.49;100291.66;7368997;19;19919;-68
2023/12/21 08:13:08;;;;;;;;;;;;;;;13.26;75.27;100282.94;7356139;19;19943;-67
2023/12/21 08:15:33;;;;;;;;;;;;;;;13.23;74.99;100299.66;7362651;19;19998;-67
2023/12/21 08:17:59;;;;;;;;;;;;;;;13.23;75.27;100292.66;7363069;19;20554;-67
2023/12/21 08:20:24;;;;;;;;;;;;;;;13.22;74.98;100305.78;7363337;19;19919;-68
2023/12/21 08:22:50;;;;;;;;;;;;;;;13.22;75.06;100287.44;7358503;19;20612;-67
2023/12/21 08:25:15;;;;;;;;;;;;;;;13.22;74.83;100290.06;7361945;19;20314;-67
2023/12/21 08:27:43;;;;;;;;;;;;;;;13.21;75.12;100304.06;7361879;19;19933;-68
2023/12/21 08:30:09;;;;;;;;;;;;;;;13.22;74.57;100300.56;7358154;19;19968;-67
2023/12/21 08:32:34;;;;;;;;;;;;;;;13.22;74.94;100301.41;7360329;19;19919;-68
2023/12/21 08:35:00;;;;;;;;;;;;;;;13.21;74.71;100297.06;7358129;19;19911;-66
2023/12/21 08:37:25;;;;;;;;;;;;;;;13.21;74.80;100320.69;7358448;19;20281;-67
2023/12/21 08:39:50;;;;;;;;;;;;;;;13.19;74.69;100322.47;7343115;19;19919;-67
2023/12/21 08:42:15;;;;;;;;;;;;;;;13.15;74.18;100320.03;7345993;19;19929;-67
2023/12/21 08:44:41;;;;;;;;;;;;;;;13.17;74.24;100300.69;7362720;19;19918;-67
2023/12/21 08:47:06;;;;;;;;;;;;;;;13.17;74.40;100329.53;7362850;19;19943;-68
2023/12/21 08:49:31;;;;;;;;;;;;;;;13.16;73.86;100322.59;7362689;19;19926;-68
2023/12/21 08:51:57;;;;;;;;;;;;;;;13.15;74.11;100326.13;7354497;19;19938;-68
2023/12/21 08:54:22;;;;;;;;;;;;;;;13.14;74.01;100345.41;7361855;19;20268;-66
2023/12/21 08:56:50;;;;;;;;;;;;;;;13.14;73.62;100337.53;7361515;19;19911;-67
2023/12/21 08:59:15;;;;;;;;;;;;;;;13.14;73.57;100329.69;7358026;19;19926;-67
2023/12/21 09:01:41;;;;;;;;;;;;;;;13.13;73.93;100333.22;7362867;19;20375;-67
2023/12/21 09:04:06;;;;;;;;;;;;;;;13.15;73.82;100347.09;7367970;19;19956;-67
2023/12/21 09:06:31;;;;;;;;;;;;;;;13.16;73.76;100356.69;7366946;19;19911;-68
2023/12/21 09:08:57;;;;;;;;;;;;;;;13.17;73.57;100355.75;7362674;19;20815;-68
2023/12/21 09:11:22;;;;;;;;;;;;;;;13.17;73.65;100366.25;7361940;19;19918;-67
2023/12/21 09:13:47;;;;;;;;;;;;;;;13.18;73.12;100357.50;7361346;19;19948;-68
2023/12/21 09:16:14;;;;;;;;;;;;;;;13.19;73.34;100361.81;7356783;19;20425;-67
2023/12/21 09:18:42;;;;;;;;;;;;;;;13.19;73.01;100376.69;7361161;19;19931;-67
2023/12/21 09:21:07;;;;;;;;;;;;;;;13.18;73.27;100347.00;7362913;19;19926;-67
2023/12/21 09:23:32;;;;;;;;;;;;;;;13.18;72.72;100372.38;7367123;19;20378;-67
2023/12/21 09:25:57;;;;;;;;;;;;;;;13.18;72.92;100361.88;7363863;19;19934;-68
2023/12/21 09:28:23;;;;;;;;;;;;;;;13.17;72.64;100381.97;7359660;19;19931;-67
2023/12/21 09:30:48;;;;;;;;;;;;;;;13.16;73.26;100396.00;7366025;19;19922;-67
2023/12/21 09:33:13;;;;;;;;;;;;;;;13.15;73.06;100381.19;7369210;19;20019;-67
2023/12/21 09:35:39;;;;;;;;;;;;;;;13.16;73.15;100389.91;7360477;19;19926;-68
2023/12/21 09:38:04;;;;;;;;;;;;;;;13.14;73.26;100376.03;7364386;19;19918;-68
2023/12/21 09:40:29;;;;;;;;;;;;;;;13.14;73.37;100384.72;7360425;19;19995;-67
2023/12/21 09:42:57;;;;;;;;;;;;;;;13.13;73.10;100396.13;7358362;19;19922;-68
2023/12/21 09:45:23;;;;;;;;;;;;;;;13.13;72.98;100379.56;7362208;19;20422;-67
2023/12/21 09:47:48;;;;;;;;;;;;;;;13.14;72.92;100373.41;7365507;19;19975;-67
2023/12/21 09:50:15;;;;;;;;;;;;;;;13.14;73.44;100387.34;7364968;19;19918;-67
2023/12/21 09:52:40;;;;;;;;;;;;;;;13.15;73.26;100393.44;7364369;19;20353;-67
2023/12/21 09:55:07;;;;;;;;;;;;;;;13.16;73.19;100390.75;7362162;19;19922;-67
2023/12/21 09:57:37;;;;;;;;;;;;;;;13.17;73.14;100413.44;7361124;19;20487;-68
2023/12/21 10:00:03;;;;;;;;;;;;;;;13.17;72.87;100407.34;7361850;19;20269;-67
2023/12/21 10:02:31;;;;;;;;;;;;;;;13.17;72.93;100429.16;7361833;19;19951;-67
2023/12/21 10:04:56;;;;;;;;;;;;;;;13.15;73.14;100415.28;7359307;19;19926;-67
2023/12/21 10:07:23;;;;;;;;;;;;;;;13.14;73.20;100400.47;7363157;19;19926;-68
2023/12/21 10:09:48;;;;;;;;;;;;;;;13.13;72.98;100398.75;7359009;19;19915;-67
2023/12/21 10:12:14;;;;;;;;;;;;;;;13.13;73.16;100385.66;7363113;19;19959;-67
2023/12/21 10:14:39;;;;;;;;;;;;;;;13.14;73.05;100391.75;7354325;19;19914;-67
2023/12/21 10:17:10;;;;;;;;;;;;;;;13.16;73.08;100396.00;7359021;19;19972;-67
2023/12/21 10:19:35;;;;;;;;;;;;;;;13.20;73.26;100387.13;7346596;19;19915;-67
2023/12/21 10:22:01;;;;;;;;;;;;;;;13.24;73.40;100409.72;7357936;19;20340;-68
2023/12/21 10:24:26;;;;;;;;;;;;;;;13.30;73.17;100410.41;7358954;19;19911;-67
2023/12/21 10:26:52;;;;;;;;;;;;;;;13.34;73.22;100409.38;7356291;19;19950;-68
2023/12/21 10:29:17;;;;;;;;;;;;;;;13.40;73.52;100409.13;7357653;19;19921;-68
2023/12/21 10:31:44;;;;;;;;;;;;;;;13.47;73.40;100421.06;7357035;19;19922;-68
2023/12/21 10:34:09;;;;;;;;;;;;;;;13.54;73.24;100411.22;7361660;19;19929;-67
2023/12/21 10:36:37;;;;;;;;;;;;;;;13.61;73.48;100412.66;7359567;19;19927;-67
2023/12/21 10:39:03;;;;;;;;;;;;;;;13.70;73.49;100423.66;7364300;19;19923;-68
2023/12/21 10:41:29;;;;;;;;;;;;;;;13.83;73.22;100444.16;7364949;19;19947;-68
2023/12/21 10:43:55;;;;;;;;;;;;;;;13.94;73.04;100436.72;7358485;19;20002;-68
2023/12/21 10:46:20;;;;;;;;;;;;;;;14.05;72.94;100434.50;7360180;19;20785;-67
2023/12/21 10:48:46;;;;;;;;;;;;;;;14.17;72.60;100431.34;7360579;19;19922;-68
2023/12/21 10:51:12;;;;;;;;;;;;;;;14.28;72.79;100450.13;7363859;19;19937;-67
2023/12/21 10:53:39;;;;;;;;;;;;;;;14.37;72.61;100462.03;7359412;19;19926;-67
2023/12/21 10:56:05;;;;;;;;;;;;;;;14.45;72.26;100480.13;7354987;19;19922;-67
2023/12/21 10:58:35;;;;;;;;;;;;;;;14.53;71.94;100478.03;7358932;19;20251;-67
2023/12/21 11:01:02;;;;;;;;;;;;;;;14.59;71.65;100462.00;7372097;19;20001;-67
2023/12/21 11:03:28;;;;;;;;;;;;;;;14.63;71.39;100463.56;7355629;19;19923;-67
2023/12/21 11:05:55;;;;;;;;;;;;;;;14.61;70.62;100464.59;7356000;19;19938;-67
2023/12/21 11:08:20;;;;;;;;;;;;;;;14.72;70.49;100505.25;7355990;19;19919;-67
2023/12/21 11:10:46;;;;;;;;;;;;;;;14.70;70.61;100475.56;7358538;19;19929;-68
2023/12/21 11:13:11;;;;;;;;;;;;;;;14.77;70.68;100508.53;7362766;19;19954;-67
2023/12/21 11:15:36;;;;;;;;;;;;;;;14.82;70.46;100531.13;7366481;19;20312;-67
2023/12/21 11:18:06;;;;;;;;;;;;;;;14.85;70.36;100515.22;7354781;19;20827;-68
2023/12/21 11:20:42;;;;;;;;;;;;;;;14.87;69.74;100506.34;7358815;19;19927;-68
2023/12/21 11:23:07;;;;;;;;;;;;;;;14.88;69.22;100509.84;7361195;19;20728;-67
2023/12/21 11:25:33;;;;;;;;;;;;;;;14.86;68.92;100511.69;7360018;19;19927;-67
2023/12/21 11:28:00;;;;;;;;;;;;;;;14.82;68.86;100504.84;7357998;19;20784;-68
2023/12/21 11:30:27;;;;;;;;;;;;;;;14.77;69.04;100491.91;7364412;19;19943;-67
2023/12/21 11:33:02;;;;;;;;;;;;;;;14.74;68.62;100497.28;7357170;19;19938;-67
2023/12/21 11:35:29;;;;;;;;;;;;;;;14.66;68.51;100460.84;7354364;19;19939;-67
2023/12/21 11:37:56;;;;;;;;;;;;;;;14.68;68.14;100493.16;7356890;19;19914;-67
2023/12/21 11:40:22;;;;;;;;;;;;;;;14.64;67.67;100470.53;7358704;19;19927;-68
2023/12/21 11:42:48;;;;;;;;;;;;;;;14.62;67.93;100477.66;7359548;19;20349;-67
2023/12/21 11:45:30;;;;;;;;;;;;;;;14.60;67.98;100476.88;7358403;19;20339;-67
2023/12/21 11:48:00;;;;;;;;;;;;;;;14.58;67.90;100452.41;7360661;19;19926;-68
2023/12/21 11:50:33;;;;;;;;;;;;;;;14.58;68.05;100480.47;7359044;19;19929;-67
2023/12/21 11:53:08;;;;;;;;;;;;;;;14.59;67.98;100488.28;7353087;19;19923;-67
2023/12/21 11:55:38;;;;;;;;;;;;;;;14.62;67.56;100487.31;7364762;19;20734;-68
2023/12/21 11:58:19;;;;;;;;;;;;;;;14.64;68.14;100495.97;7363101;19;20542;-67
2023/12/21 12:00:55;;;;;;;;;;;;;;;14.66;67.53;100484.50;7363369;19;20322;-67
2023/12/21 12:03:21;;;;;;;;;;;;;;;14.68;67.21;100461.59;7358165;19;19927;-67
2023/12/21 12:05:49;;;;;;;;;;;;;;;14.69;67.01;100476.44;7354318;19;20030;-67
2023/12/21 12:08:19;;;;;;;;;;;;;;;14.70;67.17;100475.56;7360302;19;20338;-68
2023/12/21 12:10:44;;;;;;;;;;;;;;;14.71;67.13;100472.00;7325245;19;19929;-66
2023/12/21 12:13:15;;;;;;;;;;;;;;;14.74;66.36;100474.47;7332807;19;20009;-65
2023/12/21 12:18:10;;;;;;;;;;;;;;;14.88;66.55;100459.88;7299311;19;19915;-62
2023/12/21 12:20:45;;;;;;;;;;;;;;;14.96;66.79;100442.00;7307572;19;20672;-66
2023/12/21 12:23:11;;;;;;;;;;;;;;;15.10;67.36;100458.00;7314237;19;19930;-69
2023/12/21 12:25:36;;;;;;;;;;;;;;;15.25;66.93;100462.56;7336101;19;19922;-66
2023/12/21 12:28:03;;;;;;;;;;;;;;;15.42;66.52;100468.84;7354859;19;20292;-64
2023/12/21 12:30:28;;;;;;;;;;;;;;;15.58;66.92;100477.72;7361390;19;19918;-67